createdAt,value
2023-03-11T00:01:18.369Z,14
2023-03-11T00:03:19.545Z,13.4
2023-03-11T00:05:21.173Z,12.5
2023-03-11T00:07:17.278Z,12.7
2023-03-11T00:09:16.832Z,11.9
2023-03-11T00:11:16.375Z,11.1
2023-03-11T00:13:17.356Z,14
2023-03-11T00:15:15.793Z,16.3
2023-03-11T00:17:15.383Z,17.7
2023-03-11T00:19:15.043Z,17.2
2023-03-11T00:21:16.185Z,19.5
2023-03-11T00:23:15.172Z,22.6
2023-03-11T00:25:14.455Z,26.2
2023-03-11T00:27:13.475Z,27.7
2023-03-11T00:29:14.875Z,25.6
2023-03-11T00:31:13.026Z,21.8
2023-03-11T00:33:14.536Z,16.1
2023-03-11T00:35:15.385Z,20.3
2023-03-11T00:37:11.506Z,20.7
2023-03-11T00:39:11.237Z,22.3
2023-03-11T00:41:10.703Z,24.1
2023-03-11T00:43:10.796Z,21.4
2023-03-11T00:45:10.694Z,25.5
2023-03-11T00:47:11.219Z,23.9
2023-03-11T00:49:09.108Z,19.2
2023-03-11T00:51:12.989Z,19.8
2023-03-11T00:53:10.374Z,28.8
2023-03-11T00:55:10.198Z,19.3
2023-03-11T00:57:07.651Z,20
2023-03-11T00:59:07.615Z,19.1
2023-03-11T01:01:08.049Z,19
2023-03-11T01:03:06.389Z,17.4
2023-03-11T01:05:07.877Z,20.4
2023-03-11T01:07:05.518Z,21.7
2023-03-11T01:09:05.300Z,16
2023-03-11T01:11:06.207Z,17.2
2023-03-11T01:13:04.780Z,21.4
2023-03-11T01:15:09.696Z,18.6
2023-03-11T01:17:03.708Z,18
2023-03-11T01:19:03.279Z,18.5
2023-03-11T01:21:03.321Z,21.1
2023-03-11T01:23:02.603Z,19.7
2023-03-11T01:25:03.585Z,16.8
2023-03-11T01:27:01.657Z,18
2023-03-11T01:29:01.216Z,18.2
2023-03-11T01:31:01.056Z,19.5
2023-03-11T01:33:01.323Z,23.9
2023-03-11T01:35:00.007Z,20.6
2023-03-11T01:37:00.056Z,19.8
2023-03-11T01:38:59.270Z,20.6
2023-03-11T01:40:58.896Z,22.9
2023-03-11T01:42:59.546Z,21.5
2023-03-11T01:44:58.199Z,23.8
2023-03-11T01:47:31.548Z,20
2023-03-11T01:49:01.857Z,20.6
2023-03-11T01:50:57.938Z,17
2023-03-11T01:52:56.662Z,19.7
2023-03-11T01:54:56.350Z,20.3
2023-03-11T01:56:57.712Z,21.6
2023-03-11T01:58:56.553Z,21.3
2023-03-11T02:00:56.077Z,20.7
2023-03-11T02:02:59.190Z,21.4
2023-03-11T02:04:56.759Z,16.7
2023-03-11T02:06:55.414Z,14.7
2023-03-11T02:08:54.775Z,16.2
2023-03-11T02:10:53.783Z,15.6
2023-03-11T02:12:55.914Z,16.7
2023-03-11T02:14:53.254Z,11.6
2023-03-11T02:16:51.704Z,13.7
2023-03-11T02:18:51.475Z,12.7
2023-03-11T02:21:01.108Z,12.7
2023-03-11T02:22:51.367Z,13.4
2023-03-11T02:24:57.122Z,13.8
2023-03-11T02:26:54.010Z,9.1
2023-03-11T02:28:50.916Z,13.2
2023-03-11T02:30:51.021Z,14.9
2023-03-11T02:32:49.360Z,12.2
2023-03-11T02:34:48.279Z,13.2
2023-03-11T02:36:47.888Z,14.7
2023-03-11T02:38:47.166Z,12.4
2023-03-11T02:40:53.596Z,14.7
2023-03-11T02:42:46.323Z,8.8
2023-03-11T02:44:58.721Z,11.5
2023-03-11T02:46:46.440Z,11.1
2023-03-11T02:48:46.765Z,12.9
2023-03-11T02:50:45.794Z,11.5
2023-03-11T02:52:44.863Z,10.4
2023-03-11T02:54:43.834Z,10.1
2023-03-11T02:56:43.692Z,10.4
2023-03-11T02:58:43.307Z,10.1
2023-03-11T03:00:43.807Z,13.2
2023-03-11T03:02:43.344Z,10.8
2023-03-11T03:04:42.515Z,10.8
2023-03-11T03:06:41.476Z,11.7
2023-03-11T03:08:41.556Z,10.3
2023-03-11T03:10:40.659Z,9.7
2023-03-11T03:12:40.293Z,10.2
2023-03-11T03:14:39.779Z,10.4
2023-03-11T03:16:39.497Z,9.7
2023-03-11T03:18:39.244Z,10.1
2023-03-11T03:20:38.586Z,9.6
2023-03-11T03:22:38.272Z,10.3
2023-03-11T03:24:37.950Z,9.6
2023-03-11T03:26:38.284Z,10.1
2023-03-11T03:28:37.612Z,10.9
2023-03-11T03:30:36.839Z,12.9
2023-03-11T03:32:37.331Z,12.7
2023-03-11T03:34:36.054Z,11.5
2023-03-11T03:36:37.171Z,12.1
2023-03-11T03:38:34.786Z,15.1
2023-03-11T03:40:36.896Z,15.4
2023-03-11T03:42:35.280Z,19.9
2023-03-11T03:44:34.092Z,13.1
2023-03-11T03:46:33.342Z,15.9
2023-03-11T03:48:33.555Z,14.4
2023-03-11T03:50:32.410Z,18
2023-03-11T03:52:32.542Z,17.7
2023-03-11T03:54:31.703Z,11.5
2023-03-11T03:56:31.175Z,13.6
2023-03-11T03:58:30.795Z,10.9
2023-03-11T04:00:31.931Z,11.4
2023-03-11T04:02:31.093Z,11.1
2023-03-11T04:04:30.513Z,15.1
2023-03-11T04:06:35.705Z,14.7
2023-03-11T04:08:28.763Z,13.9
2023-03-11T04:10:28.625Z,12
2023-03-11T04:12:27.794Z,12.5
2023-03-11T04:14:30.479Z,18.3
2023-03-11T04:16:32.277Z,14.8
2023-03-11T04:18:27.175Z,16.3
2023-03-11T04:20:27.113Z,13.2
2023-03-11T04:22:25.910Z,19.8
2023-03-11T04:24:26.282Z,15.6
2023-03-11T04:26:25.440Z,15.5
2023-03-11T04:28:25.342Z,19.1
2023-03-11T04:30:27.650Z,14.5
2023-03-11T04:32:24.415Z,13.5
2023-03-11T04:34:23.686Z,12
2023-03-11T04:36:23.361Z,15.7
2023-03-11T04:38:22.832Z,14.2
2023-03-11T04:40:22.817Z,12.1
2023-03-11T04:42:22.605Z,11.9
2023-03-11T04:44:22.811Z,11.6
2023-03-11T04:46:22.276Z,12.1
2023-03-11T04:48:21.238Z,20.5
2023-03-11T04:50:21.037Z,13.6
2023-03-11T04:52:20.188Z,10.6
2023-03-11T04:54:19.750Z,13.5
2023-03-11T04:56:19.645Z,13.5
2023-03-11T04:58:21.072Z,12.5
2023-03-11T05:00:21.016Z,14.7
2023-03-11T05:02:24.549Z,15.7
2023-03-11T05:04:18.158Z,12.9
2023-03-11T05:06:17.575Z,12.6
2023-03-11T05:08:18.513Z,18.1
2023-03-11T05:10:17.833Z,13.2
2023-03-11T05:12:19.479Z,14
2023-03-11T05:14:16.086Z,19.4
2023-03-11T05:16:15.954Z,11.2
2023-03-11T05:18:15.973Z,10.8
2023-03-11T05:20:16.635Z,16.6
2023-03-11T05:22:15.890Z,11.8
2023-03-11T05:24:14.245Z,14.9
2023-03-11T05:26:15.634Z,15.3
2023-03-11T05:28:18.095Z,14.5
2023-03-11T05:30:13.606Z,12.5
2023-03-11T05:32:13.184Z,13.2
2023-03-11T05:34:12.765Z,13.3
2023-03-11T05:36:14.436Z,12.4
2023-03-11T05:38:11.817Z,12.3
2023-03-11T05:40:12.172Z,13.3
2023-03-11T05:42:11.039Z,16.7
2023-03-11T05:44:10.676Z,13.2
2023-03-11T05:46:11.326Z,13.9
2023-03-11T05:48:10.585Z,13.6
2023-03-11T05:50:12.259Z,10.5
2023-03-11T05:52:09.716Z,10.9
2023-03-11T05:54:11.341Z,12.8
2023-03-11T05:56:09.206Z,13.9
2023-03-11T05:58:08.796Z,12.2
2023-03-11T06:00:13.881Z,11.7
2023-03-11T06:02:07.928Z,13.6
2023-03-11T06:04:07.726Z,12.5
2023-03-11T06:06:10.011Z,10.4
2023-03-11T06:08:07.011Z,14.2
2023-03-11T06:10:07.961Z,11.8
2023-03-11T06:12:20.168Z,14.5
2023-03-11T06:14:06.253Z,11.4
2023-03-11T06:16:07.336Z,11.5
2023-03-11T06:18:06.126Z,11.9
2023-03-11T06:20:06.730Z,10.7
2023-03-11T06:22:05.075Z,11.4
2023-03-11T06:24:06.001Z,12
2023-03-11T06:26:09.314Z,10.9
2023-03-11T06:28:04.759Z,12.6
2023-03-11T06:30:07.744Z,12.9
2023-03-11T06:32:04.250Z,21
2023-03-11T06:34:03.882Z,16.8
2023-03-11T06:36:05.081Z,15.7
2023-03-11T06:38:03.216Z,15.1
2023-03-11T06:40:04.899Z,13.7
2023-03-11T06:42:03.092Z,16.5
2023-03-11T06:44:02.414Z,22.7
2023-03-11T06:46:09.289Z,11.5
2023-03-11T06:48:01.870Z,10.4
2023-03-11T06:50:01.729Z,12
2023-03-11T06:52:02.312Z,16
2023-03-11T06:54:01.282Z,14.7
2023-03-11T06:56:04.344Z,16.5
2023-03-11T06:58:01.051Z,20.4
2023-03-11T07:00:02.609Z,18.9
2023-03-11T07:02:00.551Z,14.8
2023-03-11T07:04:01.153Z,15.2
2023-03-11T07:06:00.386Z,11.9
2023-03-11T07:08:00.018Z,11
2023-03-11T07:10:00.683Z,13.7
2023-03-11T07:12:06.796Z,9.5
2023-03-11T07:14:02.515Z,7.5
2023-03-11T07:16:01.810Z,7.8
2023-03-11T07:17:58.944Z,11.4
2023-03-11T07:19:59.970Z,8.7
2023-03-11T07:21:58.361Z,12.5
2023-03-11T07:24:01.336Z,6.5
2023-03-11T07:25:58.603Z,5.9
2023-03-11T07:27:58.042Z,9.2
2023-03-11T07:29:57.641Z,6.2
2023-03-11T07:31:58.158Z,12
2023-03-11T07:33:59.654Z,11.7
2023-03-11T07:35:57.857Z,11
2023-03-11T07:37:57.312Z,10.9
2023-03-11T07:39:57.059Z,6.8
2023-03-11T07:41:57.423Z,6.3
2023-03-11T07:43:58.205Z,6.2
2023-03-11T07:46:05.809Z,7.6
2023-03-11T07:47:56.400Z,5.8
2023-03-11T07:49:57.316Z,5.6
2023-03-11T07:51:56.181Z,11.6
2023-03-11T07:53:57.573Z,6
2023-03-11T07:55:56.366Z,7.5
2023-03-11T07:57:55.438Z,6.5
2023-03-11T07:59:55.364Z,5.5
2023-03-11T08:01:55.238Z,5.9
2023-03-11T08:03:55.362Z,10.9
2023-03-11T08:05:54.876Z,6.6
2023-03-11T08:07:54.966Z,7
2023-03-11T08:09:54.512Z,6.2
2023-03-11T08:11:54.369Z,5.2
2023-03-11T08:13:54.316Z,8.3
2023-03-11T08:15:54.330Z,8.3
2023-03-11T08:17:53.995Z,7.8
2023-03-11T08:19:53.810Z,6.9
2023-03-11T08:21:53.644Z,8.5
2023-03-11T08:23:57.246Z,6.5
2023-03-11T08:25:53.304Z,6.2
2023-03-11T08:27:53.205Z,4.7
2023-03-11T08:29:53.304Z,11.8
2023-03-11T08:31:52.977Z,7
2023-03-11T08:33:56.550Z,6.4
2023-03-11T08:35:52.740Z,9.4
2023-03-11T08:37:52.808Z,9.3
2023-03-11T08:39:52.200Z,7.6
2023-03-11T08:41:52.127Z,8
2023-03-11T08:43:51.934Z,12
2023-03-11T08:45:51.822Z,9
2023-03-11T08:47:51.549Z,10.2
2023-03-11T08:49:51.384Z,7.4
2023-03-11T08:51:51.308Z,5.8
2023-03-11T08:53:51.848Z,5.3
2023-03-11T08:55:52.084Z,7.6
2023-03-11T08:57:50.917Z,7.4
2023-03-11T08:59:50.575Z,7.9
2023-03-11T09:01:50.447Z,7.1
2023-03-11T09:03:50.623Z,8.5
2023-03-11T09:05:56.760Z,7.2
2023-03-11T09:07:50.253Z,8.7
2023-03-11T09:09:49.801Z,16
2023-03-11T09:11:49.621Z,9.3
2023-03-11T09:13:50.372Z,7.7
2023-03-11T09:15:50.594Z,7.3
2023-03-11T09:17:49.152Z,5.6
2023-03-11T09:19:49.022Z,5.7
2023-03-11T09:21:48.761Z,8.6
2023-03-11T09:23:48.784Z,6.9
2023-03-11T09:25:48.612Z,7.1
2023-03-11T09:27:48.310Z,11.3
2023-03-11T09:29:48.147Z,8
2023-03-11T09:31:48.153Z,10.1
2023-03-11T09:33:48.494Z,7.1
2023-03-11T09:35:47.863Z,7.9
2023-03-11T09:37:47.728Z,6
2023-03-11T09:39:47.490Z,6.8
2023-03-11T09:41:58.564Z,6.9
2023-03-11T09:43:58.018Z,6.4
2023-03-11T09:45:53.678Z,8.1
2023-03-11T09:48:05.138Z,6.3
2023-03-11T09:50:01.671Z,9.3
2023-03-11T09:51:53.056Z,6.8
2023-03-11T09:53:52.175Z,6.4
2023-03-11T09:55:48.867Z,8.2
2023-03-11T09:57:47.220Z,6.8
2023-03-11T09:59:47.190Z,7
2023-03-11T10:01:49.308Z,7
2023-03-11T10:03:47.854Z,7.4
2023-03-11T10:05:45.989Z,9.1
2023-03-11T10:07:51.012Z,7.9
2023-03-11T10:09:50.288Z,13.7
2023-03-11T10:11:55.677Z,7.9
2023-03-11T10:13:55.109Z,6.9
2023-03-11T10:15:51.710Z,7.1
2023-03-11T10:17:53.576Z,10.9
2023-03-11T10:19:51.147Z,8.5
2023-03-11T10:21:52.305Z,10.8
2023-03-11T10:24:00.298Z,7.1
2023-03-11T10:25:53.934Z,7
2023-03-11T10:27:49.111Z,8.5
2023-03-11T10:29:52.377Z,11.6
2023-03-11T10:31:48.128Z,7.2
2023-03-11T10:33:47.936Z,10.8
2023-03-11T10:35:47.599Z,10.4
2023-03-11T10:37:50.921Z,7.6
2023-03-11T10:39:47.006Z,8.2
2023-03-11T10:41:48.849Z,12.5
2023-03-11T10:43:48.511Z,8.8
2023-03-11T10:45:44.931Z,10.4
2023-03-11T10:47:42.905Z,12.5
2023-03-11T10:49:42.491Z,12.3
2023-03-11T10:51:46.010Z,15.6
2023-03-11T10:53:45.843Z,11.4
2023-03-11T10:55:46.737Z,12
2023-03-11T10:57:42.056Z,11.9
2023-03-11T10:59:47.328Z,11.2
2023-03-11T11:01:54.330Z,11.8
2023-03-11T11:03:42.667Z,14.8
2023-03-11T11:05:41.193Z,14.5
2023-03-11T11:07:41.796Z,13.8
2023-03-11T11:09:40.903Z,15.7
2023-03-11T11:11:41.485Z,12.2
2023-03-11T11:13:55.022Z,15.9
2023-03-11T11:15:50.047Z,13.3
2023-03-11T11:17:40.589Z,11.8
2023-03-11T11:19:43.791Z,11.6
2023-03-11T11:21:42.484Z,13.6
2023-03-11T11:23:42.918Z,13.4
2023-03-11T11:25:42.492Z,14.4
2023-03-11T11:27:54.216Z,14.6
2023-03-11T11:29:39.372Z,14.1
2023-03-11T11:31:41.125Z,13.3
2023-03-11T11:33:48.922Z,12.7
2023-03-11T11:35:50.016Z,15.8
2023-03-11T11:37:42.024Z,14.8
2023-03-11T11:39:46.117Z,11.4
2023-03-11T11:41:38.307Z,14.7
2023-03-11T11:43:45.924Z,14.3
2023-03-11T11:45:40.227Z,16.1
2023-03-11T11:47:42.884Z,14
2023-03-11T11:49:48.207Z,14
2023-03-11T11:51:42.087Z,16.2
2023-03-11T11:53:41.925Z,16.4
2023-03-11T11:55:42.543Z,11.8
2023-03-11T11:57:36.920Z,17.1
2023-03-11T11:59:36.948Z,12.5
2023-03-11T12:01:45.300Z,16.6
2023-03-11T12:03:54.706Z,18.4
2023-03-11T12:05:45.010Z,11.9
2023-03-11T12:07:51.844Z,16.1
2023-03-11T12:09:46.018Z,19.7
2023-03-11T12:11:42.058Z,15.4
2023-03-11T12:13:49.954Z,15.7
2023-03-11T12:15:40.595Z,16.2
2023-03-11T12:17:39.851Z,19
2023-03-11T12:19:42.494Z,20.3
2023-03-11T12:21:51.224Z,25.2
2023-03-11T12:23:49.575Z,16
2023-03-11T12:25:39.470Z,17.9
2023-03-11T12:27:42.920Z,20.6
2023-03-11T12:29:40.796Z,21.5
2023-03-11T12:31:38.551Z,18.8
2023-03-11T12:33:36.620Z,20.5
2023-03-11T12:35:35.286Z,20.3
2023-03-11T12:37:33.199Z,17.9
2023-03-11T12:39:34.303Z,19.1
2023-03-11T12:41:35.098Z,21.9
2023-03-11T12:44:00.159Z,19.8
2023-03-11T12:45:48.396Z,21.7
2023-03-11T12:47:35.199Z,21.1
2023-03-11T12:49:33.980Z,19.7
2023-03-11T12:51:39.807Z,17.6
2023-03-11T12:53:47.481Z,18.8
2023-03-11T12:55:34.435Z,17.2
2023-03-11T12:57:36.553Z,17.4
2023-03-11T13:00:00.859Z,17.8
2023-03-11T13:01:45.929Z,17.6
2023-03-11T13:03:50.594Z,19.5
2023-03-11T13:05:47.743Z,18.6
2023-03-11T13:07:47.041Z,17
2023-03-11T13:09:31.649Z,18.2
2023-03-11T13:11:43.516Z,16.3
2023-03-11T13:13:36.517Z,16.8
2023-03-11T13:15:34.381Z,17.6
2023-03-11T13:17:30.363Z,17.9
2023-03-11T13:19:48.886Z,19.1
2023-03-11T13:21:38.835Z,23.5
2023-03-11T13:23:33.268Z,20.5
2023-03-11T13:25:34.763Z,17.6
2023-03-11T13:27:41.378Z,20.1
2023-03-11T13:29:46.590Z,15.6
2023-03-11T13:31:40.501Z,16
2023-03-11T13:33:36.474Z,15.4
2023-03-11T13:35:43.129Z,13.7
2023-03-11T13:37:40.076Z,17.6
2023-03-11T13:39:38.525Z,25.1
2023-03-11T13:41:31.488Z,30.3
2023-03-11T13:43:27.326Z,25.1
2023-03-11T13:45:29.660Z,20.9
2023-03-11T13:47:30.636Z,17.4
2023-03-11T13:49:35.042Z,15.2
2023-03-11T13:51:34.616Z,16.8
2023-03-11T13:53:31.899Z,13
2023-03-11T13:55:31.901Z,14
2023-03-11T13:57:28.815Z,19
2023-03-11T13:59:27.969Z,17.2
2023-03-11T14:01:25.801Z,14.4
2023-03-11T14:03:28.356Z,22.3
2023-03-11T14:05:29.399Z,17
2023-03-11T14:07:28.315Z,15.8
2023-03-11T14:09:27.321Z,11.8
2023-03-11T14:11:26.800Z,13.3
2023-03-11T14:13:26.737Z,13.2
2023-03-11T14:15:26.133Z,10.8
2023-03-11T14:17:24.275Z,10.1
2023-03-11T14:19:23.985Z,10.3
2023-03-11T14:21:23.954Z,7.8
2023-03-11T14:23:27.568Z,8.5
2023-03-11T14:25:26.599Z,10.5
2023-03-11T14:27:23.479Z,8.1
2023-03-11T14:29:30.548Z,9.7
2023-03-11T14:31:30.148Z,9.7
2023-03-11T14:33:23.340Z,8.6
2023-03-11T14:35:23.337Z,9.8
2023-03-11T14:37:26.870Z,7.5
2023-03-11T14:39:26.899Z,7.9
2023-03-11T14:41:22.470Z,9
2023-03-11T14:43:21.992Z,9.3
2023-03-11T14:45:24.237Z,7.8
2023-03-11T14:47:30.996Z,9.2
2023-03-11T14:49:23.244Z,8.4
2023-03-11T14:51:26.016Z,9.4
2023-03-11T14:53:26.407Z,9.3
2023-03-11T14:55:26.128Z,7.9
2023-03-11T14:57:27.857Z,8.2
2023-03-11T14:59:24.643Z,8.2
2023-03-11T15:01:23.531Z,8.2
2023-03-11T15:03:25.028Z,8.8
2023-03-11T15:05:24.401Z,7
2023-03-11T15:07:20.196Z,7.6
2023-03-11T15:09:22.482Z,10.9
2023-03-11T15:11:22.197Z,10.2
2023-03-11T15:13:23.715Z,8.4
2023-03-11T15:15:25.413Z,8.6
2023-03-11T15:17:34.680Z,8.5
2023-03-11T15:19:29.422Z,11.4
2023-03-11T15:21:21.058Z,12.5
2023-03-11T15:23:21.495Z,11.2
2023-03-11T15:25:19.113Z,11.6
2023-03-11T15:27:27.772Z,10.9
2023-03-11T15:29:17.918Z,8.4
2023-03-11T15:31:27.467Z,8.4
2023-03-11T15:33:22.886Z,8.7
2023-03-11T15:35:19.901Z,7.7
2023-03-11T15:37:20.513Z,12.4
2023-03-11T15:39:19.527Z,10.2
2023-03-11T15:41:16.931Z,9.6
2023-03-11T15:43:23.012Z,12.6
2023-03-11T15:45:18.300Z,8
2023-03-11T15:47:18.296Z,8.9
2023-03-11T15:49:16.240Z,8.7
2023-03-11T15:51:18.855Z,9.9
2023-03-11T15:53:16.124Z,12.2
2023-03-11T15:55:15.871Z,10.2
2023-03-11T15:57:23.083Z,9
2023-03-11T15:59:17.211Z,8.4
2023-03-11T16:01:15.164Z,8.3
2023-03-11T16:03:15.892Z,7.1
2023-03-11T16:05:18.045Z,8.4
2023-03-11T16:07:14.800Z,11.6
2023-03-11T16:09:15.771Z,10.3
2023-03-11T16:11:15.141Z,13.9
2023-03-11T16:13:16.542Z,12.6
2023-03-11T16:15:22.109Z,9.9
2023-03-11T16:17:14.703Z,11.9
2023-03-11T16:19:14.058Z,8.3
2023-03-11T16:21:16.540Z,9.3
2023-03-11T16:23:18.319Z,8.7
2023-03-11T16:25:20.210Z,9.5
2023-03-11T16:27:15.106Z,8.9
2023-03-11T16:29:19.330Z,13.6
2023-03-11T16:31:12.848Z,9.6
2023-03-11T16:33:12.428Z,7.4
2023-03-11T16:35:12.436Z,8.5
2023-03-11T16:37:15.344Z,8.8
2023-03-11T16:39:11.914Z,8.4
2023-03-11T16:41:11.869Z,8.7
2023-03-11T16:43:12.710Z,8.8
2023-03-11T16:45:12.414Z,7.9
2023-03-11T16:47:11.274Z,10.1
2023-03-11T16:49:11.228Z,9.3
2023-03-11T16:51:11.782Z,16.8
2023-03-11T16:53:10.824Z,7.8
2023-03-11T16:55:10.881Z,9.4
2023-03-11T16:57:10.586Z,17.9
2023-03-11T16:59:10.796Z,8
2023-03-11T17:01:11.676Z,8.3
2023-03-11T17:03:11.222Z,6.8
2023-03-11T17:05:10.552Z,7.8
2023-03-11T17:07:10.106Z,6.9
2023-03-11T17:09:09.553Z,9.6
2023-03-11T17:11:15.802Z,7.4
2023-03-11T17:13:10.828Z,7.8
2023-03-11T17:15:09.519Z,9
2023-03-11T17:17:08.942Z,6.6
2023-03-11T17:19:08.959Z,7.9
2023-03-11T17:21:10.936Z,6.3
2023-03-11T17:23:08.519Z,7.8
2023-03-11T17:25:08.512Z,8.1
2023-03-11T17:27:07.872Z,7.6
2023-03-11T17:29:07.808Z,6.1
2023-03-11T17:31:11.171Z,7.8
2023-03-11T17:33:07.640Z,10
2023-03-11T17:35:08.510Z,8.8
2023-03-11T17:37:07.201Z,10
2023-03-11T17:39:07.095Z,10
2023-03-11T17:41:07.748Z,9
2023-03-11T17:43:06.654Z,10
2023-03-11T17:45:08.213Z,9.5
2023-03-11T17:47:06.452Z,6.7
2023-03-11T17:49:07.094Z,10.1
2023-03-11T17:51:07.183Z,7.1
2023-03-11T17:53:06.702Z,9.4
2023-03-11T17:55:06.924Z,9
2023-03-11T17:57:05.610Z,7.8
2023-03-11T17:59:05.514Z,6.8
2023-03-11T18:01:07.272Z,7.7
2023-03-11T18:03:05.111Z,8.3
2023-03-11T18:05:06.002Z,8.9
2023-03-11T18:07:04.784Z,8.1
2023-03-11T18:09:04.594Z,9
2023-03-11T18:11:06.326Z,10.3
2023-03-11T18:13:04.318Z,8.6
2023-03-11T18:15:08.373Z,7.3
2023-03-11T18:17:04.221Z,9.3
2023-03-11T18:19:04.836Z,7.3
2023-03-11T18:21:06.057Z,6.9
2023-03-11T18:23:04.957Z,7.2
2023-03-11T18:25:03.689Z,10.6
2023-03-11T18:27:03.514Z,8.2
2023-03-11T18:29:03.295Z,7.1
2023-03-11T18:31:08.591Z,7.1
2023-03-11T18:33:02.795Z,11.1
2023-03-11T18:35:02.744Z,8.9
2023-03-11T18:37:02.414Z,10.3
2023-03-11T18:39:03.181Z,8.6
2023-03-11T18:41:01.972Z,8.8
2023-03-11T18:43:01.839Z,7.6
2023-03-11T18:45:01.705Z,6.9
2023-03-11T18:47:01.534Z,7.8
2023-03-11T18:49:02.847Z,10.1
2023-03-11T18:51:01.376Z,10.7
2023-03-11T18:53:01.109Z,8.3
2023-03-11T18:55:00.853Z,8.7
2023-03-11T18:57:00.723Z,8.9
2023-03-11T18:59:00.799Z,8.7
2023-03-11T19:01:04.177Z,11.6
2023-03-11T19:03:00.408Z,9.1
2023-03-11T19:05:00.432Z,10.2
2023-03-11T19:07:00.092Z,9.3
2023-03-11T19:08:59.959Z,9.7
2023-03-11T19:10:59.836Z,10
2023-03-11T19:12:59.601Z,9.5
2023-03-11T19:14:59.426Z,10.9
2023-03-11T19:16:59.347Z,12.3
2023-03-11T19:18:59.090Z,10.9
2023-03-11T19:21:00.427Z,12.4
2023-03-11T19:22:58.817Z,11.7
2023-03-11T19:24:58.595Z,10.4
2023-03-11T19:26:58.444Z,10
2023-03-11T19:28:58.409Z,9.8
2023-03-11T19:30:59.004Z,12.1
2023-03-11T19:32:58.055Z,11.6
2023-03-11T19:34:57.842Z,12
2023-03-11T19:36:57.668Z,10.2
2023-03-11T19:38:57.570Z,10
2023-03-11T19:41:01.529Z,11.9
2023-03-11T19:42:57.588Z,10.9
2023-03-11T19:44:57.140Z,9.1
2023-03-11T19:46:56.970Z,13.5
2023-03-11T19:48:56.932Z,10.2
2023-03-11T19:50:56.618Z,10.1
2023-03-11T19:52:56.571Z,12.5
2023-03-11T19:54:56.316Z,13.4
2023-03-11T19:56:56.305Z,10.8
2023-03-11T19:58:56.192Z,11.5
2023-03-11T20:00:56.011Z,13.3
2023-03-11T20:02:55.823Z,11.8
2023-03-11T20:04:55.754Z,10.9
2023-03-11T20:06:55.552Z,11.5
2023-03-11T20:08:55.518Z,11.8
2023-03-11T20:11:00.552Z,13.5
2023-03-11T20:13:02.142Z,12.8
2023-03-11T20:14:54.769Z,13.2
2023-03-11T20:16:54.685Z,12
2023-03-11T20:18:54.600Z,11.8
2023-03-11T20:20:54.352Z,11.6
2023-03-11T20:22:54.378Z,11.8
2023-03-11T20:24:54.056Z,12.2
2023-03-11T20:26:53.932Z,12.5
2023-03-11T20:28:55.170Z,13
2023-03-11T20:30:53.667Z,12.7
2023-03-11T20:32:54.554Z,11.9
2023-03-11T20:34:53.463Z,13.3
2023-03-11T20:36:53.181Z,12.1
2023-03-11T20:38:54.426Z,13.4
2023-03-11T20:40:55.379Z,11.3
2023-03-11T20:42:52.743Z,12.5
2023-03-11T20:44:53.544Z,14.8
2023-03-11T20:46:52.609Z,13.5
2023-03-11T20:48:52.287Z,12.8
2023-03-11T20:50:52.317Z,15.6
2023-03-11T20:52:52.254Z,13.9
2023-03-11T20:54:51.893Z,14
2023-03-11T20:56:51.799Z,14.7
2023-03-11T20:58:53.145Z,14.1
2023-03-11T21:00:51.479Z,14.3
2023-03-11T21:02:51.397Z,14.9
2023-03-11T21:04:51.168Z,13.3
2023-03-11T21:06:51.592Z,12.1
2023-03-11T21:08:53.070Z,17.6
2023-03-11T21:10:50.638Z,16.2
2023-03-11T21:12:50.468Z,13.9
2023-03-11T21:14:50.360Z,14.5
2023-03-11T21:16:50.545Z,13.4
2023-03-11T21:18:50.255Z,15.1
2023-03-11T21:20:50.157Z,16
2023-03-11T21:22:49.906Z,13.4
2023-03-11T21:24:51.574Z,17
2023-03-11T21:26:49.605Z,16.1
2023-03-11T21:28:49.475Z,16
2023-03-11T21:30:57.017Z,16.9
2023-03-11T21:32:49.297Z,15
2023-03-11T21:34:49.450Z,16
2023-03-11T21:36:49.182Z,16.7
2023-03-11T21:38:49.322Z,15.7
2023-03-11T21:40:49.037Z,16.1
2023-03-11T21:42:50.109Z,18.7
2023-03-11T21:44:48.504Z,16.3
2023-03-11T21:46:48.170Z,17.1
2023-03-11T21:48:48.438Z,15.7
2023-03-11T21:50:47.940Z,21.3
2023-03-11T21:52:47.732Z,13.6
2023-03-11T21:54:47.874Z,16.9
2023-03-11T21:56:47.525Z,17.3
2023-03-11T21:58:47.331Z,18.4
2023-03-11T22:00:48.286Z,18.1
2023-03-11T22:02:47.010Z,16.1
2023-03-11T22:04:47.053Z,18.1
2023-03-11T22:06:46.842Z,15.2
2023-03-11T22:08:46.553Z,19
2023-03-11T22:10:46.423Z,16.9
2023-03-11T22:12:46.335Z,15.7
2023-03-11T22:14:46.170Z,16.5
2023-03-11T22:16:46.119Z,14.8
2023-03-11T22:18:46.045Z,17.2
2023-03-11T22:20:45.793Z,16.9
2023-03-11T22:22:46.021Z,15.2
2023-03-11T22:24:45.522Z,12.8
2023-03-11T22:26:45.309Z,15.6
2023-03-11T22:28:45.198Z,14.1
2023-03-11T22:30:45.353Z,11.7
2023-03-11T22:32:45.014Z,9.7
2023-03-11T22:34:44.892Z,10.7
2023-03-11T22:36:44.603Z,9.5
2023-03-11T22:38:44.652Z,8.9
2023-03-11T22:40:44.471Z,11.9
2023-03-11T22:42:44.215Z,11.1
2023-03-11T22:44:44.170Z,8.9
2023-03-11T22:46:44.090Z,9.1
2023-03-11T22:48:43.928Z,9.6
2023-03-11T22:50:44.430Z,9
2023-03-11T22:52:43.804Z,9.8
2023-03-11T22:54:44.137Z,8.8
2023-03-11T22:56:43.541Z,10.6
2023-03-11T22:58:44.027Z,11.7
2023-03-11T23:00:43.304Z,9.2
2023-03-11T23:02:44.008Z,9.9
2023-03-11T23:04:44.005Z,9.8
2023-03-11T23:06:42.857Z,9.9
2023-03-11T23:08:43.430Z,8.3
2023-03-11T23:10:45.275Z,8.1
2023-03-11T23:12:43.628Z,6.6
2023-03-11T23:14:45.216Z,7.3
2023-03-11T23:16:42.515Z,6.8
2023-03-11T23:18:44.324Z,10.5
2023-03-11T23:20:42.914Z,5
2023-03-11T23:22:42.573Z,8
2023-03-11T23:24:41.911Z,6.3
2023-03-11T23:26:41.761Z,7.9
2023-03-11T23:28:42.273Z,5.4
2023-03-11T23:30:41.727Z,4.7
2023-03-11T23:32:41.640Z,6.9
2023-03-11T23:34:41.336Z,5.9
2023-03-11T23:36:41.103Z,4.8
2023-03-11T23:38:41.520Z,4.6
2023-03-11T23:40:41.077Z,5.9
2023-03-11T23:42:41.027Z,5.3
2023-03-11T23:44:40.653Z,5.2
2023-03-11T23:46:40.624Z,3.6
2023-03-11T23:48:40.534Z,3.3
2023-03-11T23:50:44.748Z,4.3
2023-03-11T23:52:40.339Z,3.8
2023-03-11T23:54:40.221Z,3.9
2023-03-11T23:56:40.153Z,3.7
2023-03-11T23:58:40.468Z,4.5
